createdAt,value
2017-11-18T08:27:56.952Z,14.58
2017-11-18T08:28:56.836Z,15.10
2017-11-18T08:30:50.291Z,15.58
2017-11-18T08:31:50.218Z,15.76
2017-11-18T08:33:43.703Z,15.87
2017-11-18T08:34:43.577Z,16.02
2017-11-18T08:36:37.180Z,16.09
2017-11-18T08:37:37.105Z,16.00
2017-11-18T08:39:30.458Z,16.18
2017-11-18T08:40:30.348Z,16.21
2017-11-18T08:42:23.653Z,16.25
2017-11-18T08:43:23.578Z,16.21
2017-11-18T08:45:16.937Z,16.32
2017-11-18T08:46:16.822Z,16.36
2017-11-18T08:48:10.259Z,16.34
2017-11-18T08:49:10.158Z,16.32
2017-11-18T08:51:03.456Z,16.34
2017-11-18T08:52:03.388Z,16.46
2017-11-18T08:53:56.735Z,16.57
2017-11-18T08:54:56.622Z,16.74
2017-11-18T08:57:01.649Z,17.24
2017-11-18T08:58:01.568Z,17.39
2017-11-18T08:59:54.916Z,17.66
2017-11-18T09:00:54.807Z,17.72
2017-11-18T09:02:48.745Z,17.87
2017-11-18T09:03:48.044Z,18.05
2017-11-18T09:05:41.349Z,18.24
2017-11-18T09:06:41.284Z,18.38
2017-11-18T09:08:34.619Z,18.49
2017-11-18T09:09:34.521Z,18.33
2017-11-18T09:11:27.836Z,18.56
2017-11-18T09:12:27.764Z,18.56
2017-11-18T09:14:21.103Z,18.68
2017-11-18T09:15:21.000Z,18.64
2017-11-18T09:17:14.311Z,18.57
2017-11-18T09:18:14.240Z,18.66
2017-11-18T09:20:07.600Z,18.76
2017-11-18T09:21:07.494Z,18.82
2017-11-18T09:23:00.810Z,18.76
2017-11-18T09:24:00.737Z,18.83
2017-11-18T09:25:54.086Z,18.98
2017-11-18T09:26:53.977Z,19.09
2017-11-18T09:28:47.326Z,19.04
2017-11-18T09:29:47.214Z,19.04
2017-11-18T09:31:40.684Z,19.37
2017-11-18T09:32:40.616Z,19.53
2017-11-18T09:34:34.186Z,19.57
2017-11-18T09:35:34.081Z,19.60
2017-11-18T09:37:27.510Z,19.97
2017-11-18T09:38:27.440Z,19.86
2017-11-18T09:40:21.000Z,20.23
2017-11-18T09:41:20.878Z,20.00
2017-11-18T09:43:14.351Z,19.78
2017-11-18T09:44:14.282Z,19.84
2017-11-18T09:46:07.849Z,20.25
2017-11-18T09:47:07.760Z,20.07
2017-11-18T09:49:01.155Z,20.50
2017-11-18T09:50:01.022Z,20.86
2017-11-18T09:51:54.455Z,21.37
2017-11-18T09:52:54.388Z,21.37
2017-11-18T09:54:47.961Z,21.55
2017-11-18T09:55:47.850Z,21.30
2017-11-18T09:57:41.265Z,20.46
2017-11-18T09:58:41.189Z,20.23
2017-11-18T10:00:34.542Z,20.50
2017-11-18T10:01:34.434Z,20.71
2017-11-18T10:03:27.907Z,21.23
2017-11-18T10:04:27.838Z,21.53
2017-11-18T10:06:21.194Z,21.13
2017-11-18T10:07:21.086Z,21.00
2017-11-18T10:09:14.564Z,21.05
2017-11-18T10:10:14.468Z,21.16
2017-11-18T10:11:14.410Z,20.86
2017-11-18T10:12:14.354Z,20.63
2017-11-18T10:13:14.300Z,20.55
2017-11-18T10:14:14.244Z,20.67
2017-11-18T10:15:14.188Z,20.75
2017-11-18T10:16:14.137Z,20.70
2017-11-18T10:17:14.078Z,20.48
2017-11-18T10:18:14.024Z,20.48
2017-11-18T10:19:13.973Z,20.22
2017-11-18T10:20:13.916Z,20.39
2017-11-18T10:21:13.856Z,20.55
2017-11-18T10:22:13.798Z,20.39
2017-11-18T10:23:13.745Z,20.34
2017-11-18T10:24:13.691Z,20.17
2017-11-18T10:25:13.636Z,20.12
2017-11-18T10:26:13.584Z,20.02
2017-11-18T10:27:13.524Z,19.82
2017-11-18T10:28:13.469Z,19.86
2017-11-18T10:29:13.414Z,19.82
2017-11-18T10:30:13.360Z,19.79
2017-11-18T10:31:13.308Z,19.78
2017-11-18T10:32:13.247Z,19.78
2017-11-18T10:33:13.192Z,19.71
2017-11-18T10:34:13.136Z,19.70
2017-11-18T10:35:13.080Z,19.50
2017-11-18T10:36:13.024Z,19.53
2017-11-18T10:37:12.977Z,19.49
2017-11-18T10:38:12.914Z,19.53
2017-11-18T10:39:12.858Z,19.41
2017-11-18T10:40:12.966Z,19.38
2017-11-18T10:41:12.816Z,19.39
2017-11-18T10:42:12.692Z,19.41
2017-11-18T10:43:12.634Z,19.39
2017-11-18T10:44:12.580Z,19.39
2017-11-18T10:45:12.537Z,19.32
2017-11-18T10:46:12.469Z,19.42
2017-11-18T10:47:12.412Z,19.32
2017-11-18T10:48:12.376Z,19.34
2017-11-18T10:49:12.306Z,19.27
2017-11-18T10:50:12.244Z,19.24
2017-11-18T10:51:12.191Z,19.34
2017-11-18T10:52:12.134Z,19.38
2017-11-18T10:53:12.078Z,19.34
2017-11-18T10:54:12.025Z,19.52
2017-11-18T10:55:11.969Z,19.38
2017-11-18T10:56:11.913Z,19.35
2017-11-18T10:57:11.855Z,19.41
2017-11-18T10:58:11.800Z,19.42
2017-11-18T10:59:11.743Z,19.31
2017-11-18T11:00:11.687Z,19.34
2017-11-18T11:01:11.632Z,19.35
2017-11-18T11:02:11.578Z,19.32
2017-11-18T11:03:11.521Z,19.34
2017-11-18T11:04:11.466Z,19.32
2017-11-18T11:05:11.408Z,19.38
2017-11-18T11:06:11.366Z,19.44
2017-11-18T11:07:11.298Z,19.37
2017-11-18T11:08:11.243Z,19.79
2017-11-18T11:09:11.190Z,19.94
2017-11-18T11:10:11.133Z,19.59
2017-11-18T11:11:11.078Z,19.59
2017-11-18T11:12:11.021Z,19.54
2017-11-18T11:13:10.964Z,19.57
2017-11-18T11:14:10.951Z,19.53
2017-11-18T11:15:10.851Z,19.57
2017-11-18T11:16:10.795Z,19.81
2017-11-18T11:17:10.739Z,20.08
2017-11-18T11:18:10.685Z,20.32
2017-11-18T11:19:10.628Z,20.56
2017-11-18T11:20:10.574Z,20.52
2017-11-18T11:21:10.524Z,20.71
2017-11-18T11:22:10.459Z,20.70
2017-11-18T11:23:10.406Z,20.36
2017-11-18T11:24:10.352Z,20.04
2017-11-18T11:25:10.298Z,19.86
2017-11-18T11:26:10.240Z,19.89
2017-11-18T11:27:10.184Z,20.37
2017-11-18T11:28:10.132Z,20.36
2017-11-18T11:29:10.075Z,20.53
2017-11-18T11:30:10.019Z,20.74
2017-11-18T11:31:09.964Z,20.65
2017-11-18T11:32:09.911Z,20.36
2017-11-18T11:33:09.852Z,20.49
2017-11-18T11:34:09.799Z,20.23
2017-11-18T11:35:09.742Z,20.09
2017-11-18T11:36:09.687Z,20.65
2017-11-18T11:37:09.631Z,20.63
2017-11-18T11:38:09.577Z,20.49
2017-11-18T11:39:09.520Z,20.68
2017-11-18T11:40:09.466Z,20.68
2017-11-18T11:41:09.410Z,20.74
2017-11-18T11:42:09.356Z,20.73
2017-11-18T11:43:09.300Z,20.74
2017-11-18T11:44:09.249Z,20.56
2017-11-18T11:45:09.189Z,20.79
2017-11-18T11:46:09.135Z,20.73
2017-11-18T11:47:09.079Z,20.41
2017-11-18T11:48:09.025Z,20.52
2017-11-18T11:49:08.967Z,20.39
2017-11-18T11:50:08.915Z,20.44
2017-11-18T11:51:08.859Z,20.49
2017-11-18T11:52:08.801Z,20.18
2017-11-18T11:53:08.747Z,20.18
2017-11-18T11:54:08.693Z,20.22
2017-11-18T11:55:08.637Z,20.55
2017-11-18T11:56:08.581Z,20.73
2017-11-18T11:57:08.526Z,20.39
2017-11-18T11:58:08.472Z,20.27
2017-11-18T11:59:08.420Z,20.29
2017-11-18T12:00:08.361Z,20.22
2017-11-18T12:01:08.305Z,20.14
2017-11-18T12:02:08.251Z,20.23
2017-11-18T12:03:08.196Z,20.32
2017-11-18T12:04:08.140Z,20.65
2017-11-18T12:05:08.085Z,20.70
2017-11-18T12:06:08.035Z,20.50
2017-11-18T12:07:07.977Z,20.25
2017-11-18T12:08:07.919Z,20.02
2017-11-18T12:09:07.863Z,20.08
2017-11-18T12:10:07.818Z,19.93
2017-11-18T12:11:07.753Z,19.93
2017-11-18T12:12:07.697Z,19.87
2017-11-18T12:13:07.643Z,19.84
2017-11-18T12:14:07.589Z,19.96
2017-11-18T12:15:07.533Z,19.89
2017-11-18T12:16:07.476Z,19.77
2017-11-18T12:17:07.421Z,19.78
2017-11-18T12:18:07.375Z,19.68
2017-11-18T12:19:07.313Z,19.77
2017-11-18T12:20:07.256Z,19.62
2017-11-18T12:21:07.198Z,19.59
2017-11-18T12:22:07.150Z,19.67
2017-11-18T12:23:07.089Z,19.62
2017-11-18T12:24:07.034Z,19.63
2017-11-18T12:25:06.980Z,19.60
2017-11-18T12:26:06.922Z,19.82
2017-11-18T12:27:06.877Z,19.93
2017-11-18T12:28:06.814Z,20.27
2017-11-18T12:29:06.756Z,20.32
2017-11-18T12:30:06.701Z,20.08
2017-11-18T12:31:06.646Z,20.15
2017-11-18T12:32:06.591Z,19.93
2017-11-18T12:33:06.533Z,19.79
2017-11-18T12:34:06.483Z,19.84
2017-11-18T12:35:06.425Z,20.07
2017-11-18T12:36:06.369Z,19.93
2017-11-18T12:37:06.315Z,19.67
2017-11-18T12:38:06.258Z,19.67
2017-11-18T12:39:06.203Z,19.86
2017-11-18T12:40:06.148Z,19.96
2017-11-18T12:41:06.093Z,20.17
2017-11-18T12:42:06.036Z,20.09
2017-11-18T12:43:05.979Z,19.93
2017-11-18T12:44:05.927Z,19.79
2017-11-18T12:45:05.869Z,19.87
2017-11-18T12:46:05.816Z,19.78
2017-11-18T12:47:05.759Z,19.67
2017-11-18T12:48:05.704Z,19.63
2017-11-18T12:49:05.648Z,19.75
2017-11-18T12:50:05.598Z,19.82
2017-11-18T12:51:05.536Z,19.93
2017-11-18T12:52:05.482Z,19.84
2017-11-18T12:53:05.427Z,19.79
2017-11-18T12:54:05.372Z,19.81
2017-11-18T12:55:05.315Z,19.87
2017-11-18T12:56:05.265Z,19.84
2017-11-18T12:57:05.208Z,19.87
2017-11-18T12:58:05.152Z,19.92
2017-11-18T12:59:05.095Z,19.93
2017-11-18T13:00:05.038Z,19.87
2017-11-18T13:01:04.986Z,19.78
2017-11-18T13:02:04.928Z,19.60
2017-11-18T13:03:04.873Z,19.72
2017-11-18T13:04:04.817Z,19.49
2017-11-18T13:05:04.765Z,19.50
2017-11-18T13:06:04.710Z,19.50
2017-11-18T13:07:04.650Z,19.49
2017-11-18T13:08:04.596Z,19.35
2017-11-18T13:09:04.538Z,19.38
2017-11-18T13:10:04.500Z,19.53
2017-11-18T13:11:04.428Z,19.75
2017-11-18T13:12:04.374Z,20.14
2017-11-18T13:13:04.316Z,20.49
2017-11-18T13:14:04.263Z,20.70
2017-11-18T13:15:04.209Z,20.88
2017-11-18T13:16:04.157Z,20.63
2017-11-18T13:17:04.096Z,20.71
2017-11-18T13:18:04.040Z,20.50
2017-11-18T13:19:03.984Z,20.44
2017-11-18T13:20:03.926Z,20.48
2017-11-18T13:21:03.920Z,20.55
2017-11-18T13:22:03.896Z,20.68
2017-11-18T13:23:03.833Z,20.65
2017-11-18T13:24:03.829Z,20.64
2017-11-18T13:25:03.759Z,20.64
2017-11-18T13:26:03.679Z,20.71
2017-11-18T13:27:03.536Z,20.64
2017-11-18T13:28:03.490Z,20.95
2017-11-18T13:29:03.529Z,21.44
2017-11-18T13:30:03.376Z,21.30
2017-11-18T13:31:03.321Z,21.10
2017-11-18T13:32:03.268Z,21.11
2017-11-18T13:33:03.212Z,21.29
2017-11-18T13:34:03.155Z,21.07
2017-11-18T13:35:03.103Z,21.14
2017-11-18T13:36:03.045Z,21.04
2017-11-18T13:37:03.089Z,21.08
2017-11-18T13:38:02.937Z,20.95
2017-11-18T13:39:02.881Z,20.90
2017-11-18T13:40:02.824Z,21.01
2017-11-18T13:41:02.772Z,20.92
2017-11-18T13:42:02.715Z,21.01
2017-11-18T13:43:02.690Z,21.10
2017-11-18T13:44:02.712Z,20.93
2017-11-18T13:45:02.602Z,20.92
2017-11-18T13:46:02.495Z,20.88
2017-11-18T13:47:02.439Z,20.90
2017-11-18T13:48:02.478Z,20.92
2017-11-18T13:49:02.332Z,20.95
2017-11-18T13:50:02.276Z,21.01
2017-11-18T13:51:02.220Z,20.92
2017-11-18T13:52:02.255Z,21.16
2017-11-18T13:53:02.182Z,21.01
2017-11-18T13:54:02.185Z,20.95
2017-11-18T13:55:02.001Z,20.68
2017-11-18T13:56:01.947Z,20.49
2017-11-18T13:57:01.889Z,20.37
2017-11-18T13:58:01.843Z,20.46
2017-11-18T13:59:01.779Z,20.53
2017-11-18T14:00:01.724Z,20.50
2017-11-18T14:01:01.670Z,20.34
2017-11-18T14:02:01.617Z,20.29
2017-11-18T14:03:01.756Z,20.55
2017-11-18T14:04:01.628Z,20.52
2017-11-18T14:05:01.592Z,20.36
2017-11-18T14:06:01.393Z,20.26
2017-11-18T14:07:01.345Z,20.25
2017-11-18T14:08:01.284Z,20.50
2017-11-18T14:09:01.229Z,20.34
2017-11-18T14:10:01.194Z,20.09
2017-11-18T14:11:01.118Z,20.08
2017-11-18T14:12:01.058Z,19.93
2017-11-18T14:13:01.051Z,20.04
2017-11-18T14:14:00.954Z,20.00
2017-11-18T14:15:00.969Z,20.00
2017-11-18T14:16:00.842Z,20.05
2017-11-18T14:17:00.836Z,19.96
2017-11-18T14:18:00.851Z,19.93
2017-11-18T14:19:00.674Z,20.04
2017-11-18T14:20:00.620Z,19.97
2017-11-18T14:21:00.577Z,19.94
2017-11-18T14:22:00.510Z,19.94
2017-11-18T14:23:00.467Z,19.84
2017-11-18T14:24:00.399Z,19.84
2017-11-18T14:25:00.344Z,20.15
2017-11-18T14:26:00.287Z,20.33
2017-11-18T14:27:00.233Z,20.32
2017-11-18T14:28:00.178Z,20.08
2017-11-18T14:29:00.134Z,19.79
2017-11-18T14:30:00.068Z,19.82
2017-11-18T14:31:00.018Z,19.71
2017-11-18T14:31:59.957Z,19.60
2017-11-18T14:32:59.900Z,19.56
2017-11-18T14:33:59.856Z,19.53
2017-11-18T14:34:59.806Z,19.53
2017-11-18T14:35:59.736Z,19.49
2017-11-18T14:36:59.682Z,19.45
2017-11-18T14:37:59.623Z,19.49
2017-11-18T14:38:59.570Z,19.44
2017-11-18T14:39:59.512Z,19.41
2017-11-18T14:40:59.457Z,19.45
2017-11-18T14:41:59.401Z,19.49
2017-11-18T14:42:59.342Z,19.37
2017-11-18T14:43:59.290Z,19.37
2017-11-18T14:44:59.233Z,19.35
2017-11-18T14:45:59.179Z,19.23
2017-11-18T14:46:59.122Z,19.37
2017-11-18T14:47:59.063Z,19.39
2017-11-18T14:48:59.008Z,19.38
2017-11-18T14:49:58.959Z,19.35
2017-11-18T14:50:58.897Z,19.41
2017-11-18T14:51:58.849Z,19.35
2017-11-18T14:52:58.788Z,19.38
2017-11-18T14:53:58.732Z,19.37
2017-11-18T14:54:58.676Z,19.38
2017-11-18T14:55:58.621Z,19.38
2017-11-18T14:56:58.569Z,19.37
2017-11-18T14:57:58.508Z,19.45
2017-11-18T14:58:58.454Z,19.49
2017-11-18T14:59:58.391Z,19.52
2017-11-18T15:00:58.336Z,19.53
2017-11-18T15:01:58.280Z,19.75
2017-11-18T15:02:58.224Z,20.55
2017-11-18T15:03:58.167Z,20.95
2017-11-18T15:04:58.113Z,21.08
2017-11-18T15:05:58.061Z,20.77
2017-11-18T15:06:58.002Z,20.73
2017-11-18T15:07:57.952Z,20.55
2017-11-18T15:08:57.890Z,20.44
2017-11-18T15:09:57.838Z,20.50
2017-11-18T15:10:57.786Z,20.80
2017-11-18T15:11:57.728Z,20.74
2017-11-18T15:12:57.790Z,20.64
2017-11-18T15:13:57.629Z,20.61
2017-11-18T15:14:57.555Z,20.70
2017-11-18T15:15:57.501Z,20.73
2017-11-18T15:16:57.451Z,20.73
2017-11-18T15:17:57.393Z,21.11
2017-11-18T15:18:57.335Z,21.18
2017-11-18T15:19:57.283Z,21.07
2017-11-18T15:20:57.224Z,20.95
2017-11-18T15:21:57.169Z,20.89
2017-11-18T15:22:57.116Z,20.90
2017-11-18T15:23:57.058Z,20.93
2017-11-18T15:24:57.004Z,21.01
2017-11-18T15:25:56.948Z,21.38
2017-11-18T15:26:56.893Z,21.11
2017-11-18T15:27:56.837Z,21.29
2017-11-18T15:28:56.781Z,21.50
2017-11-18T15:29:56.728Z,21.45
2017-11-18T15:30:56.672Z,21.30
2017-11-18T15:31:56.617Z,21.14
2017-11-18T15:32:56.567Z,21.29
2017-11-18T15:33:56.506Z,21.32
2017-11-18T15:34:56.452Z,21.44
2017-11-18T15:35:56.398Z,21.65
2017-11-18T15:36:56.341Z,22.03
2017-11-18T15:37:56.286Z,22.52
2017-11-18T15:38:56.230Z,22.43
2017-11-18T15:39:56.174Z,22.15
2017-11-18T15:40:56.123Z,21.73
2017-11-18T15:41:56.067Z,21.45
2017-11-18T15:42:56.020Z,21.41
2017-11-18T15:43:55.957Z,21.56
2017-11-18T15:44:57.411Z,21.51
2017-11-18T15:45:55.850Z,21.58
2017-11-18T15:46:55.792Z,21.47
2017-11-18T15:47:55.738Z,21.98
2017-11-18T15:48:55.683Z,22.77
2017-11-18T15:49:55.629Z,22.62
2017-11-18T15:50:55.574Z,22.43
2017-11-18T15:51:55.520Z,22.22
2017-11-18T15:52:55.464Z,22.48
2017-11-18T15:53:55.410Z,23.06
2017-11-18T15:54:55.355Z,23.49
2017-11-18T15:55:55.303Z,23.76
2017-11-18T15:56:55.252Z,23.88
2017-11-18T15:57:55.196Z,23.86
2017-11-18T15:58:55.142Z,23.85
2017-11-18T15:59:55.085Z,23.66
2017-11-18T16:00:55.030Z,23.61
2017-11-18T16:01:54.977Z,23.67
2017-11-18T16:02:54.920Z,23.74
2017-11-18T16:03:54.868Z,23.71
2017-11-18T16:04:54.816Z,23.45
2017-11-18T16:05:54.884Z,22.80
2017-11-18T16:06:54.837Z,22.85
2017-11-18T16:07:54.727Z,22.76
2017-11-18T16:08:54.684Z,22.68
2017-11-18T16:09:54.838Z,22.53
2017-11-18T16:10:54.565Z,22.61
2017-11-18T16:11:54.510Z,22.16
2017-11-18T16:12:54.466Z,22.37
2017-11-18T16:13:54.384Z,22.38
2017-11-18T16:14:54.335Z,22.58
2017-11-18T16:15:54.219Z,22.70
2017-11-18T16:16:54.164Z,22.68
2017-11-18T16:17:54.111Z,22.71
2017-11-18T16:18:54.054Z,22.71
2017-11-18T16:19:54.091Z,22.74
2017-11-18T16:20:53.949Z,22.76
2017-11-18T16:21:53.891Z,22.71
2017-11-18T16:22:53.838Z,22.58
2017-11-18T16:23:53.789Z,22.44
2017-11-18T16:24:53.730Z,22.37
2017-11-18T16:25:53.676Z,22.12
2017-11-18T16:26:53.670Z,21.71
2017-11-18T16:27:53.566Z,21.30
2017-11-18T16:28:53.538Z,21.19
2017-11-18T16:29:53.458Z,21.00
2017-11-18T16:30:53.409Z,20.89
2017-11-18T16:31:53.350Z,20.73
2017-11-18T16:32:53.293Z,20.63
2017-11-18T16:33:53.238Z,20.71
2017-11-18T16:35:53.175Z,20.77
2017-11-18T16:36:53.136Z,20.85
2017-11-18T16:37:53.018Z,20.92
2017-11-18T16:38:52.982Z,20.95
2017-11-18T16:39:52.912Z,20.98
2017-11-18T16:40:52.928Z,20.92
2017-11-18T16:41:52.913Z,21.04
2017-11-18T16:42:52.864Z,20.95
2017-11-18T16:43:52.802Z,20.85
2017-11-18T16:44:52.633Z,20.74
2017-11-18T16:45:52.687Z,20.80
2017-11-18T16:46:52.593Z,20.95
2017-11-18T16:47:52.529Z,20.75
2017-11-18T16:48:52.413Z,20.82
2017-11-18T16:49:52.454Z,20.73
2017-11-18T16:50:52.351Z,20.73
2017-11-18T16:51:52.260Z,20.73
2017-11-18T16:52:52.262Z,20.68
2017-11-18T16:53:52.134Z,20.73
2017-11-18T16:54:52.075Z,20.56
2017-11-18T16:55:52.023Z,20.65
2017-11-18T16:56:51.970Z,20.63
2017-11-18T16:57:51.911Z,20.52
2017-11-18T16:58:51.854Z,20.52
2017-11-18T16:59:51.803Z,20.58
2017-11-18T17:00:51.829Z,20.52
2017-11-18T17:01:51.776Z,20.39
2017-11-18T17:02:52.715Z,20.36
2017-11-18T17:03:51.591Z,20.37
2017-11-18T17:04:51.643Z,20.32
2017-11-18T17:05:51.474Z,20.36
2017-11-18T17:06:51.425Z,20.37
2017-11-18T17:07:51.361Z,20.34
2017-11-18T17:08:51.305Z,20.34
2017-11-18T17:09:51.244Z,20.23
2017-11-18T17:10:51.191Z,20.17
2017-11-18T17:11:51.136Z,20.08
2017-11-18T17:12:51.212Z,20.11
2017-11-18T17:13:51.027Z,20.09
2017-11-18T17:14:50.967Z,20.07
2017-11-18T17:15:50.913Z,20.18
2017-11-18T17:16:50.854Z,20.15
2017-11-18T17:17:50.802Z,20.22
2017-11-18T17:18:50.745Z,20.07
2017-11-18T17:19:50.691Z,20.08
2017-11-18T17:20:50.636Z,20.02
2017-11-18T17:21:50.581Z,20.07
2017-11-18T17:22:50.521Z,20.04
2017-11-18T17:23:50.472Z,20.11
2017-11-18T17:24:50.420Z,19.90
2017-11-18T17:25:50.359Z,20.00
2017-11-18T17:26:50.310Z,19.93
2017-11-18T17:27:50.244Z,19.92
2017-11-18T17:28:50.192Z,19.89
2017-11-18T17:29:50.133Z,19.89
2017-11-18T17:30:50.077Z,19.84
2017-11-18T17:31:50.024Z,19.84
2017-11-18T17:32:49.967Z,19.84
2017-11-18T17:33:49.912Z,19.82
2017-11-18T17:34:49.860Z,19.92
2017-11-18T17:35:49.801Z,19.86
2017-11-18T17:36:49.743Z,20.00
2017-11-18T17:37:49.688Z,19.92
2017-11-18T17:38:49.630Z,20.07
2017-11-18T17:39:49.573Z,19.94
2017-11-18T17:40:49.519Z,19.96
2017-11-18T17:41:49.467Z,19.94
2017-11-18T17:42:49.412Z,19.81
2017-11-18T17:43:49.353Z,19.82
2017-11-18T17:44:49.294Z,19.89
2017-11-18T17:45:49.239Z,19.81
2017-11-18T17:46:49.181Z,19.84
2017-11-18T17:47:49.125Z,19.82
2017-11-18T17:48:49.069Z,19.77
2017-11-18T17:49:49.017Z,19.86
2017-11-18T17:50:48.958Z,19.81
2017-11-18T17:51:48.902Z,19.78
2017-11-18T17:52:48.846Z,19.84
2017-11-18T17:53:48.790Z,19.81
2017-11-18T17:54:48.737Z,19.84
2017-11-18T17:55:48.677Z,19.77
2017-11-18T17:56:48.624Z,19.82
2017-11-18T17:57:48.567Z,19.87
2017-11-18T17:58:48.505Z,19.78
2017-11-18T17:59:48.453Z,19.84
2017-11-18T18:00:48.394Z,19.81
2017-11-18T18:01:48.339Z,19.68
2017-11-18T18:02:48.282Z,19.71
2017-11-18T18:03:48.224Z,19.68
2017-11-18T18:04:48.168Z,19.56
2017-11-18T18:05:48.126Z,19.56
2017-11-18T18:06:48.053Z,19.56
2017-11-18T18:07:47.998Z,19.62
2017-11-18T18:08:47.947Z,19.50
2017-11-18T18:09:47.886Z,19.60
2017-11-18T18:10:47.827Z,19.56
2017-11-18T18:11:47.774Z,19.68
2017-11-18T18:12:47.715Z,19.71
2017-11-18T18:13:47.660Z,19.63
2017-11-18T18:14:47.619Z,19.50
2017-11-18T18:15:47.544Z,19.49
2017-11-18T18:16:47.489Z,19.59
2017-11-18T18:17:47.430Z,19.59
2017-11-18T18:18:47.374Z,19.54
2017-11-18T18:19:47.319Z,19.47
2017-11-18T18:20:47.263Z,19.64
2017-11-18T18:21:47.231Z,19.60
2017-11-18T18:22:47.154Z,19.49
2017-11-18T18:23:47.096Z,19.49
2017-11-18T18:24:47.037Z,19.53
2017-11-18T18:25:46.979Z,19.52
2017-11-18T18:26:46.922Z,19.47
2017-11-18T18:27:46.866Z,19.52
2017-11-18T18:28:46.810Z,19.47
2017-11-18T18:29:46.758Z,19.50
2017-11-18T18:30:46.698Z,19.47
2017-11-18T18:31:46.640Z,19.45
2017-11-18T18:32:46.589Z,19.50
2017-11-18T18:33:46.529Z,19.56
2017-11-18T18:34:46.469Z,19.56
2017-11-18T18:35:46.415Z,19.50
2017-11-18T18:36:46.359Z,19.45
2017-11-18T18:37:46.300Z,19.54
2017-11-18T18:38:46.243Z,19.54
2017-11-18T18:39:46.190Z,19.54
2017-11-18T18:40:46.154Z,19.49
2017-11-18T18:41:46.076Z,19.57
2017-11-18T18:42:46.018Z,19.56
2017-11-18T18:43:45.963Z,19.63
2017-11-18T18:44:45.906Z,19.59
2017-11-18T18:45:45.849Z,19.50
2017-11-18T18:46:45.791Z,19.56
2017-11-18T18:47:45.735Z,19.60
2017-11-18T18:48:45.680Z,19.50
2017-11-18T18:49:45.622Z,19.60
2017-11-18T18:50:45.567Z,19.57
2017-11-18T18:51:45.511Z,19.53
2017-11-18T18:52:45.463Z,19.50
2017-11-18T18:53:45.398Z,19.53
2017-11-18T18:54:45.349Z,19.38
2017-11-18T18:55:45.287Z,19.57
2017-11-18T18:56:45.227Z,19.53
2017-11-18T18:57:45.173Z,19.63
2017-11-18T18:58:45.115Z,19.52
2017-11-18T18:59:45.059Z,19.50
2017-11-18T19:00:45.002Z,19.49
2017-11-18T19:01:44.944Z,19.44
2017-11-18T19:02:44.889Z,19.50
2017-11-18T19:03:44.832Z,19.59
2017-11-18T19:04:44.778Z,19.52
2017-11-18T19:05:44.721Z,19.39
2017-11-18T19:06:44.667Z,19.31
2017-11-18T19:07:44.605Z,19.24
2017-11-18T19:08:44.550Z,19.26
2017-11-18T19:09:44.497Z,19.22
2017-11-18T19:10:44.438Z,19.24
2017-11-18T19:11:44.383Z,19.24
2017-11-18T19:12:44.325Z,19.15
2017-11-18T19:13:44.272Z,19.23
2017-11-18T19:14:44.211Z,19.16
2017-11-18T19:15:44.154Z,19.22
